Track Бузовкин Данил

Time Latitude Longitude Accuracy (66% radius in meters) Altitude (meters) Speed (km/hour) Bearing (degrees) Battery (%) GPS flag
09:17:27 55.944031 38.068146 2 179.10000610352 0 0 73 1 delete
09:17:18 55.944031 38.068146 2.5 179.10000610352 0 0 73 1 delete
09:17:06 55.944040 38.068112 2 180.60000610352 0.42999997735023 222.92358398438 73 1 delete
09:16:57 55.944064 38.068157 2 178.60000610352 0.059999998658895 258.81591796875 73 1 delete
09:16:54 55.944060 38.068172 1.5 180.5 0.83999997377396 332.93518066406 73 1 delete
09:16:48 55.944055 38.068081 1.5 184.60000610352 0.50999999046326 97.14111328125 73 1 delete
09:16:45 55.944059 38.068058 1.5 184.60000610352 0.50999999046326 86.220703125 73 1 delete
09:16:36 55.944048 38.067983 1.5 187.89999389648 0 0 73 1 delete
09:16:24 55.944048 38.067983 2.5 187.89999389648 0 0 73 1 delete
09:16:15 55.944023 38.067924 2 188.5 0 0 73 1 delete
09:16:06 55.944020 38.067906 2 188.39999389648 0.62999999523163 57.392578125 73 1 delete
09:16:03 55.944002 38.067858 2 188.30000305176 0.69999998807907 70.1806640625 73 1 delete
09:15:54 55.943994 38.067798 2.5 188 0 0 73 1 delete
09:15:48 55.943995 38.067784 2.5 188.19999694824 0.19999998807907 35.386962890625 73 1 delete
09:15:42 55.943956 38.067729 2.5 188.69999694824 1.3399999141693 44.005737304688 73 1 delete
09:15:39 55.943930 38.067661 2 188.60000610352 1.6599999666214 60.479736328125 73 1 delete
09:15:36 55.943907 38.067591 2 188.39999389648 1.0199999809265 56.348876953125 73 1 delete
09:15:33 55.943896 38.067551 2 188.39999389648 0.81999999284744 66.373901367188 73 1 delete
09:15:30 55.943877 38.067518 2 187.69999694824 1.3199999332428 56.771850585938 73 1 delete
09:15:27 55.943767 38.067348 2 190.10000610352 4.6900000572205 39.70458984375 73 1 delete
09:15:24 55.943548 38.067229 2.5 195 3.0599999427795 31.580200195312 73 1 delete
09:15:21 55.943430 38.067071 2.5 195.80000305176 2.6099998950958 56.310424804688 73 1 delete
09:15:18 55.943349 38.066922 3 194.80000305176 1.6899999380112 74.761962890625 73 1 delete
09:15:12 55.943211 38.066835 3.5 196.10000610352 0.97999995946884 59.199829101562 73 1 delete
09:15:09 55.943076 38.066867 3 197.39999389648 2.4700000286102 336.08276367188 73 1 delete
09:15:06 55.942948 38.066942 3 197 3.0199999809265 338.78540039062 73 1 delete
09:15:03 55.942827 38.066995 3 197.10000610352 2.7699999809265 341.66931152344 73 1 delete
09:15:00 55.942718 38.067047 3 197 2.5799999237061 327.71667480469 73 1 delete
09:14:57 55.942621 38.067113 3 197.10000610352 2.3499999046326 307.16674804688 73 1 delete
09:14:54 55.942559 38.067137 3 197.60000610352 2.0699999332428 354.990234375 73 1 delete
09:14:51 55.942474 38.067102 3.5 197.10000610352 2.2200000286102 353.85864257812 73 1 delete
09:14:48 55.942424 38.067071 3 197.5 0.88999998569489 322.94860839844 73 1 delete
09:14:45 55.942444 38.066946 2.5 198.10000610352 2.7799999713898 128.17749023438 73 1 delete
09:14:42 55.942478 38.066773 2.5 197.80000305176 2.7400000095367 121.40991210938 73 1 delete
09:14:39 55.942477 38.066648 3 197.39999389648 1.7400000095367 111.67053222656 73 1 delete
09:14:36 55.942424 38.066568 3 197.19999694824 2.8999998569489 53.003540039062 73 1 delete
09:14:33 55.942347 38.066461 2.5 197.80000305176 2.6799998283386 51.163330078125 73 1 delete
09:14:30 55.942287 38.066394 3.5 198.10000610352 0.29999998211861 17.385864257812 73 1 delete
09:14:27 55.942217 38.066397 3 198.69999694824 3.5999999046326 0.8074951171875 73 1 delete
09:14:24 55.942087 38.066387 3 198.80000305176 3.8599998950958 9.931640625 73 1 delete
09:14:21 55.941958 38.066321 4 199.19999694824 3.0199999809265 11.282958984375 73 1 delete
09:14:18 55.941872 38.066149 2.5 199.39999389648 4.5799999237061 31.2890625 73 1 delete
09:14:15 55.941769 38.065993 3 201.39999389648 2.6599998474121 22.384643554688 73 1 delete
09:14:12 55.941771 38.065835 2.5 201 2.9800000190735 115.224609375 73 1 delete
09:14:09 55.941829 38.065665 2.5 200 3.9099998474121 116.35620117188 73 1 delete
09:14:06 55.941894 38.065410 2.5 199.39999389648 4.289999961853 124.03564453125 73 1 delete
09:14:03 55.941958 38.065079 2 200.69999694824 4.5999999046326 150.45776367188 73 1 delete
09:14:00 55.942040 38.064844 2.5 201.80000305176 3.6799998283386 130.35278320312 73 1 delete
09:13:57 55.942115 38.064637 2.5 201.30000305176 4.0599999427795 122.81616210938 73 1 delete
09:13:54 55.942177 38.064327 3 202.80000305176 3.9900000095367 114.12048339844 73 1 delete